createdAt,value
2017-02-18T00:05:41.990Z,6.72
2017-02-18T00:15:41.862Z,6.65
2017-02-18T00:25:41.976Z,6.68
2017-02-18T00:35:41.994Z,6.77
2017-02-18T00:55:41.911Z,6.8
2017-02-18T01:05:42.016Z,6.73
2017-02-18T01:15:41.864Z,6.9
2017-02-18T01:25:41.816Z,6.83
2017-02-18T01:35:42.122Z,6.72
2017-02-18T01:45:41.886Z,6.76
2017-02-18T01:55:41.881Z,6.83
2017-02-18T02:05:41.921Z,6.71
2017-02-18T02:15:41.865Z,6.72
2017-02-18T02:25:42.030Z,6.66
2017-02-18T02:35:41.976Z,6.63
2017-02-18T02:45:42.010Z,6.59
2017-02-18T02:55:42.541Z,6.56
2017-02-18T03:05:41.916Z,6.62
2017-02-18T03:15:41.945Z,6.58
2017-02-18T03:25:41.924Z,6.56
2017-02-18T03:35:42.143Z,6.72
2017-02-18T03:45:42.684Z,6.71
2017-02-18T03:55:41.968Z,6.8
2017-02-18T04:05:41.965Z,6.79
2017-02-18T04:15:41.999Z,6.73
2017-02-18T04:25:41.983Z,6.73
2017-02-18T04:35:41.962Z,6.83
2017-02-18T04:45:41.984Z,6.72
2017-02-18T04:55:41.992Z,6.71
2017-02-18T05:05:42.008Z,6.72
2017-02-18T05:15:42.006Z,6.72
2017-02-18T05:25:42.077Z,6.58
2017-02-18T05:35:42.088Z,6.47
2017-02-18T05:45:42.157Z,6.48
2017-02-18T05:55:42.255Z,6.41
2017-02-18T06:05:42.189Z,6.28
2017-02-18T06:15:42.061Z,6.29
2017-02-18T06:25:42.221Z,6.18
2017-02-18T06:35:42.078Z,6.06
2017-02-18T06:45:42.063Z,6.09
2017-02-18T06:55:42.074Z,5.96
2017-02-18T07:05:42.099Z,5.92
2017-02-18T07:15:42.109Z,6.1
2017-02-18T07:25:42.093Z,6.22
2017-02-18T07:35:42.124Z,6.36
2017-02-18T07:45:42.147Z,6.48
2017-02-18T07:55:42.146Z,6.76
2017-02-18T08:05:42.299Z,6.89
2017-02-18T08:15:42.138Z,7.24
2017-02-18T08:25:42.148Z,7.53
2017-02-18T08:35:42.188Z,7.82
2017-02-18T08:45:42.164Z,8.21
2017-02-18T08:55:42.216Z,8.44
2017-02-18T09:05:42.200Z,8.42
2017-02-18T09:15:42.206Z,8.73
2017-02-18T09:25:42.194Z,8.91
2017-02-18T09:35:42.186Z,9.18
2017-02-18T09:45:42.226Z,9.34
2017-02-18T09:55:42.238Z,9.38
2017-02-18T10:05:42.268Z,9.48
2017-02-18T10:15:42.274Z,9.31
2017-02-18T10:25:42.274Z,9.71
2017-02-18T10:35:42.298Z,9.91
2017-02-18T10:45:42.293Z,9.86
2017-02-18T10:55:42.318Z,9.5
2017-02-18T11:05:42.340Z,9.42
2017-02-18T11:15:42.346Z,9.31
2017-02-18T11:25:42.301Z,9.66
2017-02-18T11:35:42.313Z,10.4
2017-02-18T11:45:42.582Z,10.91
2017-02-18T11:55:42.503Z,11.38
2017-02-18T12:05:42.394Z,11.31
2017-02-18T12:15:42.361Z,11.49
2017-02-18T12:25:42.374Z,11.78
2017-02-18T12:35:46.861Z,11.9
2017-02-18T12:45:42.416Z,11.85
2017-02-18T12:55:42.399Z,12.06
2017-02-18T13:05:42.418Z,11.87
2017-02-18T13:15:42.432Z,11.77
2017-02-18T13:25:42.424Z,11.47
2017-02-18T13:35:42.587Z,11.89
2017-02-18T13:45:42.491Z,11.74
2017-02-18T13:55:42.469Z,11.52
2017-02-18T14:05:42.478Z,11.38
2017-02-18T14:15:42.735Z,11.27
2017-02-18T14:25:44.468Z,11.13
2017-02-18T14:35:43.994Z,11.06
2017-02-18T14:45:42.793Z,10.95
2017-02-18T14:55:50.441Z,10.98
2017-02-18T15:15:42.541Z,10.66
2017-02-18T15:25:45.087Z,10.55
2017-02-18T15:35:42.550Z,10.52
2017-02-18T15:45:50.396Z,10.36
2017-02-18T15:55:42.613Z,10.19
2017-02-18T16:05:42.729Z,9.96
2017-02-18T16:15:59.758Z,9.93
2017-02-18T16:25:42.575Z,9.67
2017-02-18T16:35:54.204Z,9.57
2017-02-18T16:55:54.650Z,9.16
2017-02-18T17:25:53.508Z,8.44
2017-02-18T17:35:51.190Z,8.12
2017-02-18T17:45:42.663Z,7.99
2017-02-18T18:15:42.959Z,6.91
2017-02-18T18:25:53.953Z,6.35
2017-02-18T18:35:42.704Z,5.86
2017-02-18T18:45:57.828Z,5.43
2017-02-18T18:55:42.997Z,5.14
2017-02-18T19:05:50.475Z,4.83
2017-02-18T19:15:42.735Z,4.57
2017-02-18T19:25:47.729Z,4.18
2017-02-18T19:35:58.628Z,4.01
2017-02-18T19:45:42.747Z,4.24
2017-02-18T19:55:48.508Z,4.1
2017-02-18T20:05:42.810Z,4.16
2017-02-18T20:15:42.790Z,3.82
2017-02-18T20:25:56.344Z,3.58
2017-02-18T20:35:56.082Z,3.43
2017-02-18T20:45:48.341Z,3.25
2017-02-18T20:55:42.820Z,3.06
2017-02-18T21:05:42.974Z,2.85
2017-02-18T21:16:00.590Z,2.77
2017-02-18T21:25:54.433Z,2.71
2017-02-18T21:35:52.249Z,2.52
2017-02-18T21:45:42.893Z,2.22
2017-02-18T21:55:42.917Z,2.27
2017-02-18T22:05:43.211Z,2.16
2017-02-18T22:15:42.979Z,2.12
2017-02-18T22:25:43.030Z,2.08
2017-02-18T22:35:44.340Z,1.98
2017-02-18T22:45:42.924Z,2.08
2017-02-18T22:55:43.073Z,2.04
2017-02-18T23:05:43.082Z,2.04
2017-02-18T23:15:43.345Z,2.04
2017-02-18T23:25:42.971Z,2.06
2017-02-18T23:35:43.080Z,2.04
2017-02-18T23:45:44.836Z,1.97
2017-02-18T23:55:42.963Z,1.98
